Wilson Observed Data For Previous 48 Hours

Caption
Day and Hour Reservoir Elevation (behind dam)* Tailwater Elevation (below dam)* Average Hourly Discharge*
1/17/2018 1 AM CST 505.50 412.95 27,539
1/17/2018 2 AM CST 505.46 412.92 28,247
1/17/2018 3 AM CST 505.45 413.26 28,048
1/17/2018 4 AM CST 505.50 414.62 40,087
1/17/2018 5 AM CST 505.45 415.42 49,637
1/17/2018 6 AM CST 505.51 416.14 60,118
1/17/2018 7 AM CST 505.56 416.72 66,730
1/17/2018 8 AM CST 505.52 416.56 69,215
1/17/2018 9 AM CST 505.58 416.58 69,328
1/17/2018 10 AM CST 505.72 414.78 59,718
1/17/2018 11 AM CST 505.63 413.35 39,872
1/17/2018 12 PM CST 505.60 413.06 33,578
1/17/2018 1 PM CST 505.62 412.84 33,732
1/17/2018 2 PM CST 505.52 412.94 32,678
1/17/2018 3 PM CST 505.49 412.89 28,379
1/17/2018 4 PM CST 505.50 413.25 28,743
1/17/2018 5 PM CST 505.47 414.45 38,233
1/17/2018 6 PM CST 505.46 415.62 49,863
1/17/2018 7 PM CST 505.56 415.80 58,697
1/17/2018 8 PM CST 505.54 415.86 58,654
1/17/2018 9 PM CST 505.54 415.93 58,790
1/17/2018 10 PM CST 505.58 414.74 47,959
1/17/2018 11 PM CST 505.62 413.84 36,398
1/18/2018 12 AM CST 505.63 413.71 31,492
1/18/2018 1 AM CST 505.69 414.87 48,325
1/18/2018 2 AM CST 505.62 414.91 48,468
1/18/2018 3 AM CST 505.65 415.02 53,012
1/18/2018 4 AM CST 505.77 415.08 57,943
1/18/2018 5 AM CST 505.70 416.11 61,301
1/18/2018 6 AM CST 505.78 416.54 69,156
1/18/2018 7 AM CST 505.80 416.56 69,044
1/18/2018 8 AM CST 505.87 416.60 69,048
1/18/2018 9 AM CST 506.09 415.78 66,589
1/18/2018 10 AM CST 505.97 415.86 63,189
1/18/2018 11 AM CST 505.95 414.57 51,485
1/18/2018 12 PM CST 505.98 412.94 33,096
1/18/2018 1 PM CST 505.94 412.99 29,510
1/18/2018 2 PM CST 505.84 413.01 29,007
1/18/2018 3 PM CST 505.89 413.03 28,636
1/18/2018 4 PM CST 505.80 413.41 28,694
1/18/2018 5 PM CST 505.83 413.88 37,496
1/18/2018 6 PM CST 505.73 415.01 48,240
1/18/2018 7 PM CST 505.74 414.92 47,704
1/18/2018 8 PM CST 505.73 414.72 47,902
1/18/2018 9 PM CST 505.74 414.86 47,796
1/18/2018 10 PM CST 505.70 414.88 47,266
1/18/2018 11 PM CST 505.72 414.04 37,647
1/19/2018 12 AM CST 505.71 413.32 34,152

Elevations are in feet above sea level. Discharges are in cubic feet per second and are reported at the end of the hour.